Time;durP1;ratioP1;P1;durP2;ratioP2;P2;SDS_P1;SDS_P2;PMS_P1;PMS_P2;Temp;Humidity;BMP_temperature;BMP_pressure;BME280_temperature;BME280_humidity;BME280_pressure;Samples;Min_cycle;Max_cycle;Signal;HPM_P1;HPM_P2
2022/03/04 00:02:15;;;;;;;22.03;15.80;;;2.10;99.90;;;;;;5009547;28;20146;-75
2022/03/04 00:04:42;;;;;;;20.37;14.73;;;2.10;99.90;;;;;;4997697;28;20038;-77
2022/03/04 00:07:07;;;;;;;21.83;14.57;;;2.10;99.90;;;;;;5007639;28;20737;-76
2022/03/04 00:09:34;;;;;;;21.10;15.37;;;2.00;99.90;;;;;;4985298;28;20041;-76
2022/03/04 00:12:07;;;;;;;22.07;15.70;;;2.10;99.90;;;;;;4982720;28;20400;-76
2022/03/04 00:14:33;;;;;;;22.33;16.10;;;2.10;99.90;;;;;;4992806;28;20396;-77
2022/03/04 00:16:58;;;;;;;22.60;15.77;;;2.00;99.90;;;;;;4977930;28;20050;-77
2022/03/04 00:19:24;;;;;;;23.07;16.10;;;2.10;99.90;;;;;;5005272;28;20104;-76
2022/03/04 00:21:51;;;;;;;21.57;15.90;;;1.90;99.90;;;;;;4997757;28;20073;-78
2022/03/04 00:24:19;;;;;;;22.80;16.60;;;1.80;99.90;;;;;;4970649;28;20493;-77
2022/03/04 00:26:45;;;;;;;18.87;15.87;;;1.70;99.90;;;;;;4972045;28;20062;-77
2022/03/04 00:29:11;;;;;;;22.43;15.87;;;1.60;99.90;;;;;;4971896;28;20408;-77
2022/03/04 00:31:38;;;;;;;21.00;15.70;;;1.60;99.90;;;;;;5001518;28;20760;-76
2022/03/04 00:34:06;;;;;;;21.30;15.87;;;1.60;99.90;;;;;;5002163;28;21393;-76
2022/03/04 00:36:39;;;;;;;20.93;15.57;;;1.60;99.90;;;;;;4983481;28;20459;-77
2022/03/04 00:39:11;;;;;;;23.17;16.77;;;1.50;99.90;;;;;;4997370;28;20137;-77
2022/03/04 00:41:40;;;;;;;21.27;16.03;;;1.50;99.90;;;;;;4999552;28;20046;-77
2022/03/04 00:44:06;;;;;;;23.20;15.87;;;1.40;99.90;;;;;;4984695;28;20064;-77
2022/03/04 00:46:32;;;;;;;25.23;16.63;;;1.50;99.90;;;;;;4995290;28;20040;-77
2022/03/04 00:49:04;;;;;;;23.20;16.27;;;1.40;99.90;;;;;;4995398;28;20046;-76
2022/03/04 00:51:30;;;;;;;21.20;15.60;;;1.40;99.90;;;;;;4979170;28;20521;-77
2022/03/04 00:54:02;;;;;;;23.50;16.63;;;1.40;99.90;;;;;;5004107;28;20054;-77
2022/03/04 00:56:28;;;;;;;22.43;16.63;;;1.40;99.90;;;;;;4995207;28;20070;-76
2022/03/04 00:58:54;;;;;;;20.73;16.00;;;1.40;99.90;;;;;;5004580;28;20088;-77
2022/03/04 01:01:20;;;;;;;22.27;17.10;;;1.40;99.90;;;;;;4971363;28;20062;-77
2022/03/04 01:03:45;;;;;;;21.77;16.20;;;1.30;99.90;;;;;;4958468;28;20056;-77
2022/03/04 01:06:11;;;;;;;24.27;17.77;;;1.30;99.90;;;;;;4972162;28;20042;-76
2022/03/04 01:08:37;;;;;;;23.53;16.90;;;1.30;99.90;;;;;;4965022;28;20096;-76
2022/03/04 01:11:03;;;;;;;24.50;17.73;;;1.20;99.90;;;;;;4977948;28;20042;-76
2022/03/04 01:13:28;;;;;;;21.80;17.03;;;1.20;99.90;;;;;;4992107;28;20042;-77
2022/03/04 01:15:55;;;;;;;26.57;18.60;;;1.20;99.90;;;;;;4975596;28;20334;-76
2022/03/04 01:18:21;;;;;;;24.20;18.30;;;1.10;99.90;;;;;;4999130;28;20583;-76
2022/03/04 01:20:47;;;;;;;25.30;18.70;;;1.10;99.90;;;;;;4988711;28;20042;-76
2022/03/04 01:23:12;;;;;;;23.73;18.47;;;1.10;99.90;;;;;;4992946;28;20045;-76
2022/03/04 01:25:38;;;;;;;26.73;19.00;;;1.20;99.90;;;;;;4977613;28;20042;-76
2022/03/04 01:28:04;;;;;;;26.77;18.90;;;1.10;99.90;;;;;;4994883;28;20074;-76
2022/03/04 01:30:30;;;;;;;24.40;18.97;;;1.10;99.90;;;;;;4986579;28;20061;-76
2022/03/04 01:32:58;;;;;;;26.90;19.30;;;1.00;99.90;;;;;;4996909;28;20120;-76
2022/03/04 01:35:24;;;;;;;26.47;19.30;;;0.90;99.90;;;;;;5006147;28;20070;-76
2022/03/04 01:37:50;;;;;;;28.27;19.30;;;0.90;99.90;;;;;;4977786;28;20074;-77
2022/03/04 01:40:16;;;;;;;27.30;20.10;;;0.80;99.90;;;;;;4998506;28;20067;-77
2022/03/04 01:42:42;;;;;;;29.00;20.10;;;0.70;99.90;;;;;;4990240;28;20468;-77
2022/03/04 01:45:09;;;;;;;31.27;21.27;;;0.70;99.90;;;;;;4973499;28;20493;-77
2022/03/04 01:47:39;;;;;;;29.27;20.67;;;0.60;99.90;;;;;;4981469;28;20046;-77
2022/03/04 01:50:09;;;;;;;27.17;20.65;;;0.50;99.90;;;;;;4970545;28;20045;-77
2022/03/04 01:52:35;;;;;;;27.97;20.73;;;0.50;99.90;;;;;;5018738;28;20052;-77
2022/03/04 01:55:00;;;;;;;30.83;21.70;;;0.60;99.90;;;;;;5006783;28;20045;-77
2022/03/04 01:57:26;;;;;;;30.40;21.43;;;0.60;99.90;;;;;;5002306;28;20500;-77
2022/03/04 01:59:53;;;;;;;31.87;22.17;;;0.40;99.90;;;;;;4996925;28;20467;-78
2022/03/04 02:02:18;;;;;;;34.10;22.03;;;0.40;99.90;;;;;;4982837;28;20136;-77
2022/03/04 02:04:44;;;;;;;34.70;21.53;;;0.30;99.90;;;;;;4956993;28;20497;-77
2022/03/04 02:07:10;;;;;;;31.63;22.60;;;0.30;99.90;;;;;;4965533;28;20073;-77
2022/03/04 02:09:35;;;;;;;33.20;23.43;;;0.20;99.90;;;;;;4988201;28;20124;-77
2022/03/04 02:12:01;;;;;;;32.90;22.53;;;0.20;99.90;;;;;;4982110;28;20047;-77
2022/03/04 02:14:27;;;;;;;35.80;23.20;;;0.20;99.90;;;;;;4987128;28;20416;-77
2022/03/04 02:16:54;;;;;;;34.70;22.47;;;0.10;99.90;;;;;;4991839;28;20053;-77
2022/03/04 02:19:23;;;;;;;33.77;22.20;;;0.20;99.90;;;;;;4995353;28;20081;-77
2022/03/04 02:21:58;;;;;;;35.80;23.80;;;0.20;99.90;;;;;;4985937;28;20500;-77
2022/03/04 02:24:26;;;;;;;36.43;24.30;;;0.20;99.90;;;;;;4987583;28;20038;-76
2022/03/04 02:26:54;;;;;;;37.30;24.90;;;0.20;99.90;;;;;;4987439;28;20096;-76
2022/03/04 02:29:20;;;;;;;38.93;25.40;;;0.10;99.90;;;;;;4985818;28;20034;-77
2022/03/04 02:31:47;;;;;;;39.50;25.90;;;0.10;99.90;;;;;;4993904;28;20042;-76
2022/03/04 02:34:12;;;;;;;35.97;26.07;;;0.10;99.90;;;;;;4985542;28;20121;-76
2022/03/04 02:36:39;;;;;;;39.37;26.43;;;0.10;99.90;;;;;;5000807;28;20128;-76
2022/03/04 02:39:06;;;;;;;39.70;26.47;;;0.10;99.90;;;;;;4998834;28;20042;-75
2022/03/04 02:41:35;;;;;;;37.10;25.73;;;0.10;99.90;;;;;;5005458;28;20217;-75
2022/03/04 02:44:02;;;;;;;39.17;27.03;;;0.10;99.90;;;;;;4984281;28;20038;-75
2022/03/04 02:46:28;;;;;;;38.97;25.77;;;0.10;99.90;;;;;;4972713;28;20109;-75
2022/03/04 02:48:54;;;;;;;39.77;27.03;;;0.10;99.90;;;;;;4991730;28;20088;-76
2022/03/04 02:51:20;;;;;;;40.73;28.10;;;0.10;99.90;;;;;;4961200;28;20050;-75
2022/03/04 02:53:46;;;;;;;43.30;28.07;;;0.10;99.90;;;;;;4987775;28;20053;-75
2022/03/04 02:56:12;;;;;;;42.17;27.83;;;0.10;99.90;;;;;;4956041;28;20042;-75
2022/03/04 02:58:38;;;;;;;41.80;29.10;;;0.10;99.90;;;;;;5005565;28;20084;-75
2022/03/04 03:01:04;;;;;;;44.00;27.97;;;0.20;99.90;;;;;;4990609;28;20065;-76
2022/03/04 03:03:30;;;;;;;43.17;28.73;;;0.10;99.90;;;;;;4971947;28;20073;-76
2022/03/04 03:05:58;;;;;;;42.03;28.50;;;0.10;99.90;;;;;;4972153;28;20080;-76
2022/03/04 03:08:24;;;;;;;42.33;28.93;;;0.00;99.90;;;;;;4998371;28;20069;-76
2022/03/04 03:10:50;;;;;;;44.33;28.97;;;0.00;99.90;;;;;;4969634;28;20077;-76
2022/03/04 03:13:16;;;;;;;46.70;29.53;;;0.00;99.90;;;;;;5006553;28;20177;-75
2022/03/04 03:15:42;;;;;;;44.23;29.20;;;0.00;99.90;;;;;;4974731;28;20112;-76
2022/03/04 03:18:09;;;;;;;47.00;30.60;;;0.10;99.90;;;;;;4993348;28;20563;-76
2022/03/04 03:20:35;;;;;;;47.33;30.57;;;0.10;99.90;;;;;;5003954;28;20058;-76
2022/03/04 03:23:00;;;;;;;48.87;29.77;;;0.10;99.90;;;;;;5005687;28;20092;-76
2022/03/04 03:25:26;;;;;;;46.87;32.00;;;0.00;99.90;;;;;;4974958;28;20041;-76
2022/03/04 03:27:52;;;;;;;48.70;32.50;;;0.20;99.90;;;;;;4985949;28;20071;-76
2022/03/04 03:30:18;;;;;;;48.63;30.63;;;0.00;99.90;;;;;;5002602;28;20456;-79
2022/03/04 03:32:44;;;;;;;51.23;31.73;;;-0.10;99.90;;;;;;4979415;28;20496;-76
2022/03/04 03:35:09;;;;;;;47.23;30.80;;;-0.10;99.90;;;;;;4979165;28;20113;-76
2022/03/04 03:37:39;;;;;;;49.27;33.27;;;0.00;99.90;;;;;;4979333;28;20033;-77
2022/03/04 03:40:07;;;;;;;47.90;32.45;;;-0.10;99.90;;;;;;4991574;28;20077;-76
2022/03/04 03:42:33;;;;;;;50.53;31.80;;;-0.10;99.90;;;;;;4976525;28;20054;-77
2022/03/04 03:44:59;;;;;;;49.80;32.80;;;-0.20;99.90;;;;;;4979446;28;20068;-77
2022/03/04 03:47:28;;;;;;;44.50;30.97;;;-0.20;99.90;;;;;;5000573;28;20516;-77
2022/03/04 03:49:54;;;;;;;51.03;33.13;;;-0.20;99.90;;;;;;4997557;28;20042;-77
2022/03/04 03:52:20;;;;;;;52.67;33.47;;;-0.30;99.90;;;;;;4986550;28;20043;-78
2022/03/04 03:54:46;;;;;;;55.97;34.33;;;-0.30;99.90;;;;;;4990154;28;20404;-77
2022/03/04 03:57:12;;;;;;;51.73;33.77;;;-0.30;99.90;;;;;;4995943;28;20046;-77
2022/03/04 03:59:38;;;;;;;51.20;33.47;;;-0.30;99.90;;;;;;4999155;28;20400;-77
2022/03/04 04:02:04;;;;;;;49.30;31.87;;;-0.40;99.90;;;;;;4996057;28;20469;-77
2022/03/04 04:04:34;;;;;;;55.33;33.43;;;-0.50;99.90;;;;;;4977759;28;20492;-77
2022/03/04 04:07:03;;;;;;;54.70;33.75;;;-0.50;99.90;;;;;;5008123;28;20794;-76
2022/03/04 04:09:29;;;;;;;51.97;32.57;;;-0.50;99.90;;;;;;4980539;28;20116;-77
2022/03/04 04:11:54;;;;;;;49.17;32.07;;;-0.60;99.90;;;;;;4979509;28;20046;-78
2022/03/04 04:14:20;;;;;;;49.67;32.77;;;-0.60;99.90;;;;;;5007604;28;20503;-77
2022/03/04 04:16:46;;;;;;;53.77;34.00;;;-0.60;99.90;;;;;;4983507;28;20117;-76
2022/03/04 04:19:12;;;;;;;51.67;33.83;;;-0.60;99.90;;;;;;4975634;28;20452;-79
2022/03/04 04:21:38;;;;;;;55.17;34.77;;;-0.70;99.90;;;;;;4972155;28;20117;-78
2022/03/04 04:24:05;;;;;;;54.03;34.00;;;-0.70;99.90;;;;;;4997901;28;20121;-78
2022/03/04 04:26:31;;;;;;;55.10;34.97;;;-0.70;99.90;;;;;;4993589;28;20073;-79
2022/03/04 04:28:58;;;;;;;58.70;36.50;;;-0.70;99.90;;;;;;4994352;28;20124;-78
2022/03/04 04:31:24;;;;;;;66.30;38.47;;;-0.70;99.90;;;;;;4988956;28;20393;-77
2022/03/04 04:33:50;;;;;;;61.03;37.03;;;-0.70;99.90;;;;;;4992808;28;20093;-78
2022/03/04 04:36:17;;;;;;;69.00;40.83;;;-0.70;99.90;;;;;;4989906;28;20085;-78
2022/03/04 04:38:42;;;;;;;79.13;42.37;;;-0.70;99.90;;;;;;5000527;28;20096;-78
2022/03/04 04:41:08;;;;;;;82.10;44.20;;;-0.80;99.90;;;;;;4973169;28;20038;-78
2022/03/04 04:43:35;;;;;;;73.67;42.53;;;-0.80;99.90;;;;;;4987820;28;20488;-77
2022/03/04 04:46:01;;;;;;;78.43;43.37;;;-0.80;99.90;;;;;;4998070;28;20488;-78
2022/03/04 04:48:27;;;;;;;79.73;43.43;;;-0.80;99.90;;;;;;4983112;28;20046;-78
2022/03/04 04:50:53;;;;;;;85.80;44.53;;;-0.80;99.90;;;;;;4983944;28;20046;-77
2022/03/04 04:53:19;;;;;;;79.83;44.10;;;-0.80;99.90;;;;;;4964037;28;20046;-78
2022/03/04 04:55:44;;;;;;;83.63;45.37;;;-0.80;99.90;;;;;;4999930;28;20082;-79
2022/03/04 04:58:10;;;;;;;81.73;45.07;;;-0.80;99.90;;;;;;4991745;28;20104;-78
2022/03/04 05:00:37;;;;;;;87.03;45.83;;;-0.80;99.90;;;;;;5000136;28;20056;-78
2022/03/04 05:03:02;;;;;;;84.17;45.80;;;-0.80;99.90;;;;;;5010170;28;20501;-78
2022/03/04 05:05:28;;;;;;;79.63;45.07;;;-0.70;99.90;;;;;;4976258;28;20107;-74
2022/03/04 05:07:54;;;;;;;83.67;46.90;;;-0.70;99.90;;;;;;4958605;28;20052;-75
2022/03/04 05:10:20;;;;;;;77.83;43.87;;;-0.70;99.90;;;;;;4980333;28;20046;-78
2022/03/04 05:12:46;;;;;;;75.70;43.53;;;-0.70;99.90;;;;;;4972907;28;20038;-76
2022/03/04 05:15:12;;;;;;;78.33;45.27;;;-0.70;99.90;;;;;;4972603;28;20460;-75
2022/03/04 05:17:38;;;;;;;79.13;43.97;;;-0.70;99.90;;;;;;4974634;28;20047;-76
2022/03/04 05:20:05;;;;;;;82.03;46.53;;;-0.70;99.90;;;;;;4975463;28;20508;-75
2022/03/04 05:22:31;;;;;;;85.23;47.23;;;-0.80;99.90;;;;;;5006641;28;20512;-75
2022/03/04 05:24:57;;;;;;;83.17;47.57;;;-0.80;99.90;;;;;;4989977;28;20058;-75
2022/03/04 05:27:23;;;;;;;86.80;47.80;;;-0.70;99.90;;;;;;4972867;28;20096;-75
2022/03/04 05:29:48;;;;;;;90.40;48.07;;;-0.70;99.90;;;;;;4972255;28;20061;-74
2022/03/04 05:32:14;;;;;;;94.10;50.43;;;-0.70;99.90;;;;;;4940475;28;20077;-74
2022/03/04 05:34:41;;;;;;;88.20;49.53;;;-0.60;99.90;;;;;;4956317;28;20402;-75
2022/03/04 05:37:07;;;;;;;81.30;48.17;;;-0.70;99.90;;;;;;4978343;28;20115;-76
2022/03/04 05:39:33;;;;;;;93.17;50.30;;;-0.70;99.90;;;;;;4991795;28;20050;-76
2022/03/04 05:41:59;;;;;;;97.23;51.10;;;-0.70;99.90;;;;;;4992359;28;20377;-76
2022/03/04 05:44:25;;;;;;;91.53;49.83;;;-0.70;99.90;;;;;;4991734;28;20054;-75
2022/03/04 05:46:51;;;;;;;94.13;49.90;;;-0.60;99.90;;;;;;5008496;28;20074;-76
2022/03/04 05:49:17;;;;;;;91.60;49.70;;;-0.60;99.90;;;;;;4975254;28;21738;-75
2022/03/04 05:51:43;;;;;;;92.93;48.20;;;-0.60;99.90;;;;;;4971209;28;20497;-76
2022/03/04 05:54:09;;;;;;;87.10;48.50;;;-0.60;99.90;;;;;;4987844;28;20053;-74
2022/03/04 05:56:35;;;;;;;87.50;48.03;;;-0.60;99.90;;;;;;5008039;28;20056;-77
2022/03/04 05:59:01;;;;;;;89.50;47.80;;;-0.60;99.90;;;;;;4991482;28;20064;-74
2022/03/04 06:01:26;;;;;;;86.97;47.67;;;-0.70;99.90;;;;;;4989921;28;20496;-76
2022/03/04 06:03:52;;;;;;;85.37;47.33;;;-0.60;99.90;;;;;;4984353;28;20046;-75
2022/03/04 06:06:20;;;;;;;84.10;48.50;;;-0.70;99.90;;;;;;4987772;28;20046;-76
2022/03/04 06:08:46;;;;;;;89.17;48.83;;;-0.70;99.90;;;;;;4955773;28;20144;-75
2022/03/04 06:11:11;;;;;;;86.73;47.23;;;-0.70;99.90;;;;;;4990864;28;20054;-76
2022/03/04 06:13:40;;;;;;;84.73;48.07;;;-0.70;99.90;;;;;;5007826;28;20048;-75
2022/03/04 06:16:07;;;;;;;86.13;48.53;;;-0.70;99.90;;;;;;4974313;28;20129;-74
2022/03/04 06:18:33;;;;;;;89.03;47.50;;;-0.70;99.90;;;;;;4987182;28;20086;-75
2022/03/04 06:20:59;;;;;;;82.33;45.87;;;-0.70;99.90;;;;;;4987730;28;20056;-75
2022/03/04 06:23:25;;;;;;;81.97;44.83;;;-0.70;99.90;;;;;;4971819;28;20042;-76
2022/03/04 06:25:51;;;;;;;85.53;46.80;;;-0.70;99.90;;;;;;4971419;28;20038;-75
2022/03/04 06:28:17;;;;;;;86.53;47.20;;;-0.80;99.90;;;;;;4987819;28;20156;-75
2022/03/04 06:30:43;;;;;;;79.13;46.07;;;-0.70;99.90;;;;;;4971522;28;20729;-76
2022/03/04 06:35:54;;;;;;;87.23;48.57;;;-0.70;99.90;;;;;;4974585;28;20400;-75
2022/03/04 06:38:20;;;;;;;87.37;48.30;;;-0.60;99.90;;;;;;4971865;28;20068;-76
2022/03/04 06:40:47;;;;;;;85.83;47.70;;;-0.70;99.90;;;;;;4987933;28;20050;-77
2022/03/04 06:43:13;;;;;;;88.90;49.03;;;-0.70;99.90;;;;;;4988043;28;20058;-77
2022/03/04 06:45:44;;;;;;;95.83;48.97;;;-0.70;99.90;;;;;;4987932;28;20050;-75
2022/03/04 06:48:10;;;;;;;93.97;49.10;;;-0.70;99.90;;;;;;4987773;28;20088;-76
2022/03/04 06:50:36;;;;;;;94.47;49.43;;;-0.60;99.90;;;;;;4987083;28;20073;-74
2022/03/04 06:53:03;;;;;;;86.83;48.73;;;-0.60;99.90;;;;;;4978422;28;20935;-78
2022/03/04 06:55:29;;;;;;;86.67;47.53;;;-0.60;99.90;;;;;;4990865;28;20085;-75
2022/03/04 06:57:58;;;;;;;98.77;49.90;;;-0.70;99.90;;;;;;4991093;28;20038;-76
2022/03/04 07:00:25;;;;;;;89.00;49.57;;;-0.60;99.90;;;;;;4995362;28;20085;-76
2022/03/04 07:02:54;;;;;;;93.70;51.10;;;-0.60;99.90;;;;;;4982018;28;20464;-75
2022/03/04 07:05:23;;;;;;;95.63;49.13;;;-0.60;99.90;;;;;;4980545;28;20058;-76
2022/03/04 07:07:53;;;;;;;89.83;49.37;;;-0.60;99.90;;;;;;4983301;28;20038;-76
2022/03/04 07:10:19;;;;;;;100.90;51.22;;;-0.60;99.90;;;;;;4982301;28;20045;-76
2022/03/04 07:12:46;;;;;;;95.60;50.13;;;-0.50;99.90;;;;;;5002706;28;20046;-76
2022/03/04 07:15:15;;;;;;;96.77;49.53;;;-0.40;99.90;;;;;;4997894;28;20045;-76
2022/03/04 07:17:41;;;;;;;90.10;49.17;;;-0.50;99.90;;;;;;5005786;28;20072;-77
2022/03/04 07:20:08;;;;;;;91.40;49.33;;;-0.50;99.90;;;;;;4993122;28;20500;-75
2022/03/04 07:22:35;;;;;;;90.13;49.70;;;-0.50;99.90;;;;;;4994056;28;20647;-76
2022/03/04 07:25:06;;;;;;;92.93;48.77;;;-0.60;99.90;;;;;;4993277;28;20053;-77
2022/03/04 07:27:35;;;;;;;;;;;-0.50;99.90;;;;;;4994286;28;20042;-77
2022/03/04 07:30:06;;;;;;;78.80;45.33;;;-0.50;99.90;;;;;;4993707;28;19921;-76
2022/03/04 07:32:32;;;;;;;78.03;46.20;;;-0.50;99.90;;;;;;5010705;28;20041;-77
2022/03/04 07:34:58;;;;;;;75.93;45.00;;;-0.50;99.90;;;;;;4992675;28;20644;-75
2022/03/04 07:37:24;;;;;;;81.43;46.37;;;-0.40;99.90;;;;;;4994805;28;20054;-76
2022/03/04 07:39:50;;;;;;;77.90;45.20;;;-0.50;99.90;;;;;;4978167;28;20046;-75
2022/03/04 07:42:15;;;;;;;76.17;43.83;;;-0.40;99.90;;;;;;4962349;28;20050;-75
2022/03/04 07:44:41;;;;;;;77.47;46.20;;;-0.50;99.90;;;;;;4991369;28;20504;-76
2022/03/04 07:47:07;;;;;;;78.30;44.67;;;-0.40;99.90;;;;;;4988613;28;20100;-76
2022/03/04 07:49:33;;;;;;;72.90;44.10;;;-0.40;99.90;;;;;;4976626;28;20046;-77
2022/03/04 07:51:59;;;;;;;72.10;42.77;;;-0.40;99.90;;;;;;4963983;28;20101;-76
2022/03/04 07:54:25;;;;;;;69.10;41.30;;;-0.40;99.90;;;;;;4978246;28;20038;-76
2022/03/04 07:56:52;;;;;;;67.43;40.80;;;-0.40;99.90;;;;;;4976844;28;20542;-75
2022/03/04 07:59:19;;;;;;;66.43;42.50;;;-0.40;99.90;;;;;;4963170;28;20126;-75
2022/03/04 08:01:45;;;;;;;63.03;40.97;;;-0.40;99.90;;;;;;4982409;28;20088;-76
2022/03/04 08:04:11;;;;;;;64.13;40.27;;;-0.40;99.90;;;;;;4989041;28;20046;-74
2022/03/04 08:06:40;;;;;;;61.00;38.10;;;-0.30;99.90;;;;;;4972958;28;20084;-75
2022/03/04 08:09:06;;;;;;;69.13;43.43;;;-0.30;99.90;;;;;;4956554;28;20058;-73
2022/03/04 08:11:32;;;;;;;63.47;40.43;;;-0.40;99.90;;;;;;4983949;28;20512;-74
2022/03/04 08:13:58;;;;;;;61.07;39.20;;;-0.40;99.90;;;;;;4990661;28;20061;-75
2022/03/04 08:16:29;;;;;;;61.40;40.13;;;-0.40;99.90;;;;;;4995551;28;20045;-76
2022/03/04 08:18:56;;;;;;;58.33;39.43;;;-0.40;99.90;;;;;;4978144;28;20046;-76
2022/03/04 08:21:23;;;;;;;57.87;39.63;;;-0.30;99.90;;;;;;4972011;28;20282;-78
2022/03/04 08:23:49;;;;;;;55.00;37.07;;;-0.30;99.90;;;;;;4987462;28;20121;-77
2022/03/04 08:26:15;;;;;;;58.67;38.43;;;-0.20;99.90;;;;;;4987553;28;20152;-77
2022/03/04 08:28:40;;;;;;;54.80;38.90;;;-0.20;99.90;;;;;;4956998;28;20034;-78
2022/03/04 08:31:11;;;;;;;51.17;35.73;;;-0.10;99.90;;;;;;4982435;28;20100;-76
2022/03/04 08:33:41;;;;;;;57.60;39.00;;;0.00;99.90;;;;;;4991965;28;20519;-77
2022/03/04 08:36:07;;;;;;;52.63;36.93;;;0.00;99.90;;;;;;4973005;28;20741;-75
2022/03/04 08:38:33;;;;;;;57.53;39.20;;;0.00;99.90;;;;;;4990969;28;20049;-75
2022/03/04 08:40:59;;;;;;;55.43;37.80;;;0.00;99.90;;;;;;4973511;28;20050;-75
2022/03/04 08:43:25;;;;;;;59.20;39.57;;;0.00;99.90;;;;;;5015418;28;20053;-76
2022/03/04 08:45:52;;;;;;;62.10;40.87;;;0.00;99.90;;;;;;4961903;28;20491;-75
2022/03/04 08:48:18;;;;;;;55.77;38.90;;;0.10;99.90;;;;;;4988707;28;20520;-75
2022/03/04 08:50:44;;;;;;;59.63;38.40;;;0.10;99.90;;;;;;4989240;28;20049;-77
2022/03/04 08:53:10;;;;;;;56.87;38.80;;;0.10;99.90;;;;;;4975530;28;20105;-76
2022/03/04 08:55:36;;;;;;;53.63;37.40;;;0.10;99.90;;;;;;4987625;28;20064;-76
2022/03/04 08:58:02;;;;;;;52.87;38.77;;;0.20;99.90;;;;;;4997745;28;20057;-74
2022/03/04 09:00:28;;;;;;;53.50;38.00;;;0.30;99.90;;;;;;4999723;28;20077;-73
2022/03/04 09:02:58;;;;;;;51.37;37.23;;;0.30;99.90;;;;;;5003836;28;20057;-73
2022/03/04 09:05:24;;;;;;;53.03;38.53;;;0.40;99.90;;;;;;5005243;28;20132;-73
2022/03/04 09:07:50;;;;;;;54.80;38.33;;;0.40;99.90;;;;;;4999937;28;20384;-73
2022/03/04 09:10:16;;;;;;;52.93;37.63;;;0.40;99.90;;;;;;4975056;28;20134;-74
2022/03/04 09:12:42;;;;;;;50.03;36.67;;;0.40;99.90;;;;;;5004208;28;20057;-73
2022/03/04 09:15:08;;;;;;;48.63;36.50;;;0.40;99.90;;;;;;5002760;28;20441;-74
2022/03/04 09:17:35;;;;;;;49.67;36.00;;;0.50;99.90;;;;;;4980721;28;20068;-74
2022/03/04 09:20:01;;;;;;;51.63;37.13;;;0.50;99.90;;;;;;4978933;28;20034;-74
2022/03/04 09:22:27;;;;;;;52.47;36.77;;;0.70;99.90;;;;;;4988175;28;20093;-73
2022/03/04 09:24:53;;;;;;;51.03;35.67;;;0.80;99.90;;;;;;4990086;28;20045;-74
2022/03/04 09:27:19;;;;;;;49.20;35.40;;;0.90;99.90;;;;;;4993416;28;20050;-74
2022/03/04 09:29:45;;;;;;;48.17;35.37;;;0.90;99.90;;;;;;4968668;28;20419;-74
2022/03/04 09:32:11;;;;;;;47.50;35.00;;;0.80;99.90;;;;;;4990348;28;20121;-74
2022/03/04 09:34:37;;;;;;;47.47;35.40;;;0.80;99.90;;;;;;4994915;28;20049;-74
2022/03/04 09:37:04;;;;;;;47.53;35.60;;;0.90;99.90;;;;;;4977960;28;20069;-75
2022/03/04 09:39:30;;;;;;;49.07;35.17;;;1.00;99.90;;;;;;4987568;28;20065;-74
2022/03/04 09:41:59;;;;;;;47.73;34.33;;;1.10;99.90;;;;;;4974545;28;20034;-74
2022/03/04 09:44:28;;;;;;;47.83;35.50;;;1.10;99.90;;;;;;5001766;28;20068;-74
2022/03/04 09:46:56;;;;;;;47.53;35.27;;;1.10;99.90;;;;;;4973340;28;20440;-73
2022/03/04 09:49:28;;;;;;;45.63;33.70;;;1.20;99.90;;;;;;4961366;28;20064;-74
2022/03/04 09:51:53;;;;;;;43.77;33.43;;;1.30;99.90;;;;;;4990789;28;20053;-74
2022/03/04 09:54:19;;;;;;;45.40;35.37;;;1.50;99.90;;;;;;5006601;28;20050;-74
2022/03/04 09:56:45;;;;;;;37.97;29.67;;;1.50;99.90;;;;;;4987973;28;20328;-74
2022/03/04 09:59:11;;;;;;;37.70;28.87;;;1.60;99.90;;;;;;4973086;28;20073;-74
2022/03/04 10:01:38;;;;;;;35.10;27.63;;;1.70;99.90;;;;;;4976696;28;20231;-74
2022/03/04 10:04:07;;;;;;;35.23;28.57;;;1.80;99.90;;;;;;4954682;28;20056;-74
2022/03/04 10:06:38;;;;;;;35.97;29.20;;;1.80;99.90;;;;;;4986154;28;20654;-75
2022/03/04 10:09:04;;;;;;;37.50;30.27;;;1.80;99.90;;;;;;4987484;28;20054;-74
2022/03/04 10:11:32;;;;;;;34.00;27.53;;;1.80;99.90;;;;;;5000443;28;20085;-75
2022/03/04 10:14:07;;;;;;;35.73;28.70;;;1.80;99.90;;;;;;5005922;28;20037;-74
2022/03/04 10:16:40;;;;;;;34.93;28.47;;;1.80;99.90;;;;;;4990592;28;20046;-73
2022/03/04 10:19:14;;;;;;;36.33;29.83;;;2.00;99.90;;;;;;4987915;28;20125;-74
2022/03/04 10:21:54;;;;;;;36.80;28.67;;;2.10;99.90;;;;;;4990101;28;20108;-75
2022/03/04 10:24:33;;;;;;;33.37;26.80;;;2.10;99.90;;;;;;4976199;28;20089;-75
2022/03/04 10:27:12;;;;;;;31.93;25.70;;;2.40;99.90;;;;;;4972326;28;20046;-74
2022/03/04 10:29:49;;;;;;;31.43;25.63;;;2.40;99.90;;;;;;4988974;28;20042;-74
2022/03/04 10:32:26;;;;;;;32.10;26.33;;;2.50;99.90;;;;;;4990728;28;20524;-75
2022/03/04 10:34:59;;;;;;;29.70;24.33;;;2.60;99.90;;;;;;4986219;28;20042;-73
2022/03/04 10:37:43;;;;;;;30.27;25.17;;;2.70;99.90;;;;;;4983176;28;20069;-72
2022/03/04 10:40:18;;;;;;;30.53;24.20;;;2.70;99.90;;;;;;4990380;28;20045;-73
2022/03/04 10:42:51;;;;;;;30.37;25.43;;;2.80;99.90;;;;;;4995922;28;20084;-73
2022/03/04 10:45:21;;;;;;;30.97;25.30;;;2.90;99.90;;;;;;4977209;28;20628;-72
2022/03/04 10:47:52;;;;;;;28.60;23.55;;;3.00;99.90;;;;;;4993626;28;20058;-72
2022/03/04 10:50:32;;;;;;;30.07;24.60;;;3.10;99.90;;;;;;4978735;28;20051;-72
2022/03/04 10:53:06;;;;;;;32.30;26.77;;;3.10;99.90;;;;;;4992124;28;20054;-72
2022/03/04 10:55:39;;;;;;;32.43;25.47;;;3.10;99.90;;;;;;4987938;28;20057;-73
2022/03/04 10:58:23;;;;;;;32.43;26.03;;;3.10;99.90;;;;;;4999425;28;20041;-73
2022/03/04 11:00:50;;;;;;;34.13;25.40;;;3.10;99.90;;;;;;4992989;28;20046;-73
2022/03/04 11:03:22;;;;;;;31.23;25.27;;;3.20;99.90;;;;;;4976797;28;20073;-73
2022/03/04 11:05:50;;;;;;;28.50;23.77;;;3.30;99.90;;;;;;4992410;28;20057;-73
2022/03/04 11:08:17;;;;;;;28.93;23.63;;;3.40;99.90;;;;;;4990194;28;20054;-73
2022/03/04 11:10:43;;;;;;;28.00;22.57;;;3.40;99.90;;;;;;4977609;28;20031;-73
2022/03/04 11:13:10;;;;;;;30.23;22.60;;;3.60;99.90;;;;;;4986665;28;20636;-73
2022/03/04 11:15:37;;;;;;;28.03;23.13;;;3.80;99.90;;;;;;5003202;28;20493;-72
2022/03/04 11:18:06;;;;;;;29.73;23.40;;;3.90;99.90;;;;;;4987119;28;20089;-73
2022/03/04 11:20:32;;;;;;;25.47;21.83;;;4.00;99.90;;;;;;5018079;28;20046;-73
2022/03/04 11:22:59;;;;;;;27.50;22.23;;;4.20;99.90;;;;;;4992765;28;20245;-73
2022/03/04 11:25:25;;;;;;;29.23;23.03;;;4.30;99.90;;;;;;4974083;28;20152;-73
2022/03/04 11:27:55;;;;;;;23.77;19.10;;;4.40;99.90;;;;;;4988998;28;20132;-72
2022/03/04 11:30:32;;;;;;;25.07;21.47;;;4.50;99.90;;;;;;4992844;28;20057;-72
2022/03/04 11:33:10;;;;;;;26.73;20.58;;;4.60;99.90;;;;;;5009699;28;20066;-72
2022/03/04 11:35:42;;;;;;;26.48;21.10;;;4.70;99.90;;;;;;4999859;28;20455;-72
2022/03/04 11:38:11;;;;;;;27.20;21.63;;;4.80;99.90;;;;;;4983087;28;20370;-72
2022/03/04 11:40:48;;;;;;;25.25;19.70;;;4.90;99.90;;;;;;5000648;28;20192;-72
2022/03/04 11:43:44;;;;;;;24.73;19.70;;;5.00;99.90;;;;;;4999972;28;20450;-72
2022/03/04 11:46:41;;;;;;;23.90;19.00;;;5.20;99.90;;;;;;5010460;28;20050;-72
2022/03/04 11:49:30;;;;;;;26.48;20.08;;;5.30;99.90;;;;;;5007036;28;20388;-71
2022/03/04 11:52:11;;;;;;;24.70;19.95;;;5.40;99.90;;;;;;5007362;28;20120;-72
2022/03/04 11:54:50;;;;;;;24.77;19.42;;;5.50;99.90;;;;;;4988169;28;20039;-72
2022/03/04 11:57:22;;;;;;;21.17;16.80;;;5.60;99.90;;;;;;4994556;28;20128;-73
2022/03/04 11:59:54;;;;;;;22.08;17.02;;;5.70;99.90;;;;;;5001562;28;20053;-72
2022/03/04 12:02:27;;;;;;;21.90;17.08;;;5.80;99.90;;;;;;4972314;28;20058;-75
2022/03/04 12:05:14;;;;;;;21.65;16.73;;;5.90;99.90;;;;;;4987943;28;20038;-73
2022/03/04 12:07:44;;;;;;;21.75;16.38;;;5.90;99.90;;;;;;5006765;28;20567;-73
2022/03/04 12:10:37;;;;;;;21.48;17.77;;;6.10;99.90;;;;;;4974526;28;20044;-73
2022/03/04 12:13:15;;;;;;;19.67;14.50;;;6.10;99.90;;;;;;4991711;28;20052;-73
2022/03/04 12:15:44;;;;;;;21.63;16.92;;;6.20;99.90;;;;;;5008029;28;20049;-73
2022/03/04 12:18:33;;;;;;;22.15;17.10;;;6.20;99.90;;;;;;5005562;28;20052;-72
2022/03/04 12:21:24;;;;;;;22.00;17.45;;;6.30;99.90;;;;;;4989868;28;20042;-73
2022/03/04 12:24:09;;;;;;;21.45;16.63;;;6.30;99.90;;;;;;4992476;28;20057;-73
2022/03/04 12:26:42;;;;;;;21.70;16.75;;;6.50;99.90;;;;;;4981453;28;20048;-72
2022/03/04 12:29:11;;;;;;;20.95;15.80;;;6.60;99.90;;;;;;4988302;28;20050;-72
2022/03/04 12:31:39;;;;;;;21.48;16.20;;;6.60;99.90;;;;;;4988181;28;20046;-72
2022/03/04 12:34:14;;;;;;;19.52;16.17;;;6.70;99.90;;;;;;4988448;28;20121;-73
2022/03/04 12:36:40;;;;;;;21.33;16.77;;;6.80;99.90;;;;;;4985812;28;20235;-73
2022/03/04 12:39:05;;;;;;;21.17;16.25;;;6.80;99.90;;;;;;4991330;28;20404;-72
2022/03/04 12:41:33;;;;;;;20.50;15.07;;;6.90;99.90;;;;;;4973064;28;20074;-75